Terminal Aerodrome Forecast
Issued by NWS Buffalo, NY

Home | Current Version | Previous Version | Text Only | Print | Product List | Glossary On
Versions: 1 2 3 4 5 6 7 8 9 10 11 12 13 14 15 16 17 18 19 20 21 22 23 24
000
FTUS41 KBUF 301120
TAFROC
TAF
KROC 301120Z 3012/3112 21006KT P6SM VCSH BKN100
     FM301300 21007KT 6SM -SHRA VCTS OVC060CB
     FM301500 21008KT 4SM TSRA OVC040CB
     FM301700 22010KT P6SM VCTS BKN080CB
     FM302000 24010KT P6SM SCT250
     FM310300 21007KT P6SM SCT090=

USA.gov is the U.S. government's official web portal to all federal, state and local government web resources and services.